createdAt,value
2023-02-21T00:00:26.790Z,16.20
2023-02-21T00:01:07.017Z,16.24
2023-02-21T00:01:47.011Z,16.22
2023-02-21T00:02:28.716Z,16.24
2023-02-21T00:03:09.151Z,16.20
2023-02-21T00:03:52.082Z,16.08
2023-02-21T00:04:34.448Z,16.28
2023-02-21T00:05:14.934Z,16.26
2023-02-21T00:05:55.027Z,16.23
2023-02-21T00:06:35.129Z,16.21
2023-02-21T00:07:15.453Z,16.22
2023-02-21T00:07:55.777Z,16.17
2023-02-21T00:08:36.271Z,16.20
2023-02-21T00:09:19.197Z,16.27
2023-02-21T00:09:59.605Z,16.25
2023-02-21T00:10:39.706Z,16.25
2023-02-21T00:11:20.753Z,16.23
2023-02-21T00:12:02.279Z,16.25
2023-02-21T00:12:42.547Z,16.24
2023-02-21T00:13:22.987Z,16.10
2023-02-21T00:14:03.353Z,16.21
2023-02-21T00:14:43.839Z,16.17
2023-02-21T00:15:24.965Z,16.22
2023-02-21T00:16:04.724Z,16.18
2023-02-21T00:16:44.943Z,16.15
2023-02-21T00:17:26.559Z,16.13
2023-02-21T00:18:06.804Z,16.13
2023-02-21T00:18:47.302Z,16.06
2023-02-21T00:19:28.208Z,16.12
2023-02-21T00:20:08.375Z,16.08
2023-02-21T00:20:48.741Z,16.09
2023-02-21T00:21:29.177Z,16.12
2023-02-21T00:22:09.541Z,16.13
2023-02-21T00:22:50.061Z,16.14
2023-02-21T00:23:30.422Z,16.14
2023-02-21T00:24:10.869Z,16.17
2023-02-21T00:24:52.386Z,16.19
2023-02-21T00:25:41.292Z,16.20
2023-02-21T00:26:21.665Z,16.22
2023-02-21T00:27:01.727Z,16.23
2023-02-21T00:27:43.710Z,16.22
2023-02-21T00:28:24.110Z,16.22
2023-02-21T00:29:04.403Z,16.23
2023-02-21T00:29:47.106Z,16.23
2023-02-21T00:30:28.701Z,16.24
2023-02-21T00:31:11.129Z,16.23
2023-02-21T00:31:51.486Z,16.24
2023-02-21T00:32:31.767Z,16.24
2023-02-21T00:33:12.337Z,16.21
2023-02-21T00:33:54.354Z,16.24
2023-02-21T00:34:34.279Z,16.13
2023-02-21T00:35:14.317Z,16.21
2023-02-21T00:35:54.442Z,16.22
2023-02-21T00:36:35.424Z,16.18
2023-02-21T00:37:15.849Z,16.21
2023-02-21T00:37:56.311Z,16.22
2023-02-21T00:38:36.369Z,16.22
2023-02-21T00:39:16.959Z,16.07
2023-02-21T00:39:58.904Z,16.24
2023-02-21T00:40:38.941Z,16.24
2023-02-21T00:41:18.885Z,16.24
2023-02-21T00:41:59.024Z,16.24
2023-02-21T00:42:39.126Z,16.23
2023-02-21T00:43:20.000Z,16.25
2023-02-21T00:44:00.371Z,16.25
2023-02-21T00:44:40.645Z,16.27
2023-02-21T00:45:21.042Z,16.28
2023-02-21T00:46:01.290Z,16.22
2023-02-21T00:46:41.445Z,16.21
2023-02-21T00:47:21.706Z,16.22
2023-02-21T00:48:01.724Z,16.20
2023-02-21T00:48:42.330Z,16.25
2023-02-21T00:49:23.682Z,16.26
2023-02-21T00:50:03.783Z,16.26
2023-02-21T00:50:43.563Z,16.29
2023-02-21T00:51:24.297Z,16.27
2023-02-21T00:52:04.843Z,16.28
2023-02-21T00:52:44.786Z,16.29
2023-02-21T00:53:24.838Z,16.29
2023-02-21T00:54:04.823Z,16.30
2023-02-21T00:54:45.398Z,16.31
2023-02-21T00:55:27.224Z,16.28
2023-02-21T00:56:08.477Z,16.27
2023-02-21T00:56:48.650Z,16.25
2023-02-21T00:57:28.693Z,16.26
2023-02-21T00:58:08.730Z,16.11
2023-02-21T00:58:48.890Z,16.24
2023-02-21T00:59:29.796Z,16.25
2023-02-21T01:00:10.081Z,16.26
2023-02-21T01:00:50.292Z,16.27
2023-02-21T01:01:30.739Z,16.26
2023-02-21T01:02:11.879Z,16.25
2023-02-21T01:02:52.086Z,16.33
2023-02-21T01:03:32.723Z,16.30
2023-02-21T01:04:13.135Z,16.33
2023-02-21T01:04:53.779Z,16.33
2023-02-21T01:05:38.129Z,16.34
2023-02-21T01:06:19.427Z,16.30
2023-02-21T01:07:00.973Z,16.25
2023-02-21T01:07:40.941Z,16.15
2023-02-21T01:08:22.488Z,16.27
2023-02-21T01:09:04.058Z,16.23
2023-02-21T01:09:45.012Z,16.24
2023-02-21T01:10:26.617Z,16.30
2023-02-21T01:11:06.642Z,16.29
2023-02-21T01:11:46.954Z,16.32
2023-02-21T01:13:22.118Z,16.34
2023-02-21T01:14:04.960Z,16.34
2023-02-21T01:14:45.580Z,16.32
2023-02-21T01:15:26.580Z,16.31
2023-02-21T01:16:06.640Z,16.30
2023-02-21T01:16:47.191Z,16.27
2023-02-21T01:17:27.094Z,16.29
2023-02-21T01:18:08.216Z,16.30
2023-02-21T01:18:49.195Z,16.33
2023-02-21T01:19:29.276Z,16.34
2023-02-21T01:20:09.479Z,16.30
2023-02-21T01:20:50.481Z,16.30
2023-02-21T01:21:31.560Z,16.29
2023-02-21T01:22:13.013Z,16.27
2023-02-21T01:22:53.194Z,16.25
2023-02-21T01:23:34.301Z,16.25
2023-02-21T01:24:14.301Z,16.19
2023-02-21T01:24:55.393Z,16.15
2023-02-21T01:25:36.901Z,16.16
2023-02-21T01:26:16.746Z,16.18
2023-02-21T01:26:56.674Z,16.18
2023-02-21T01:27:38.155Z,16.21
2023-02-21T01:28:19.792Z,16.24
2023-02-21T01:28:59.895Z,16.24
2023-02-21T01:29:40.335Z,16.26
2023-02-21T01:30:20.426Z,16.20
2023-02-21T01:31:00.570Z,16.21
2023-02-21T01:31:41.195Z,16.21
2023-02-21T01:32:21.206Z,16.22
2023-02-21T01:33:01.233Z,16.24
2023-02-21T01:33:41.669Z,16.21
2023-02-21T01:34:22.172Z,16.21
2023-02-21T01:35:02.289Z,16.20
2023-02-21T01:35:44.997Z,16.21
2023-02-21T01:36:50.523Z,16.24
2023-02-21T01:37:31.150Z,16.24
2023-02-21T01:38:11.254Z,16.26
2023-02-21T01:38:52.826Z,16.25
2023-02-21T01:39:32.975Z,16.19
2023-02-21T01:40:13.874Z,16.13
2023-02-21T01:41:04.254Z,16.17
2023-02-21T01:41:44.539Z,16.16
2023-02-21T01:42:24.806Z,16.17
2023-02-21T01:43:05.316Z,16.18
2023-02-21T01:43:46.786Z,16.19
2023-02-21T01:44:49.561Z,16.18
2023-02-21T01:45:58.099Z,16.20
2023-02-21T01:46:39.433Z,16.21
2023-02-21T01:47:19.638Z,16.22
2023-02-21T01:47:59.971Z,16.22
2023-02-21T01:48:42.465Z,16.20
2023-02-21T01:49:27.404Z,16.18
2023-02-21T01:50:07.451Z,16.19
2023-02-21T01:50:50.414Z,16.18
2023-02-21T01:51:35.536Z,16.13
2023-02-21T01:52:18.293Z,16.06
2023-02-21T01:52:58.605Z,16.10
2023-02-21T01:53:42.986Z,16.13
2023-02-21T01:54:24.500Z,16.15
2023-02-21T01:55:08.927Z,16.08
2023-02-21T01:55:50.099Z,16.18
2023-02-21T01:56:32.160Z,16.17
2023-02-21T01:57:13.726Z,16.18
2023-02-21T01:57:54.764Z,16.20
2023-02-21T01:58:35.564Z,16.19
2023-02-21T01:59:19.305Z,16.17
2023-02-21T02:00:00.059Z,16.21
2023-02-21T02:00:40.344Z,16.21
2023-02-21T02:01:20.367Z,16.20
2023-02-21T02:02:05.940Z,16.18
2023-02-21T02:02:49.838Z,16.21
2023-02-21T02:03:35.423Z,16.21
2023-02-21T02:04:17.496Z,16.16
2023-02-21T02:04:59.254Z,16.19
2023-02-21T02:05:39.554Z,16.12
2023-02-21T02:06:23.117Z,16.19
2023-02-21T02:07:03.120Z,16.21
2023-02-21T02:07:44.513Z,16.21
2023-02-21T02:08:25.267Z,16.19
2023-02-21T02:09:05.848Z,16.23
2023-02-21T02:09:46.857Z,16.24
2023-02-21T02:10:29.422Z,16.23
2023-02-21T02:11:20.762Z,16.22
2023-02-21T02:12:18.907Z,16.19
2023-02-21T02:13:00.290Z,16.24
2023-02-21T02:13:42.628Z,16.22
2023-02-21T02:14:24.632Z,16.19
2023-02-21T02:15:05.413Z,16.20
2023-02-21T02:15:43.281Z,16.22
2023-02-21T02:16:12.527Z,16.24
2023-02-21T02:16:41.743Z,16.24
2023-02-21T02:17:11.627Z,16.23
2023-02-21T02:17:44.750Z,16.26
2023-02-21T02:18:38.126Z,16.27
2023-02-21T02:19:42.181Z,16.26
2023-02-21T02:20:48.323Z,16.28
2023-02-21T02:21:42.403Z,16.27
2023-02-21T02:22:25.152Z,16.27
2023-02-21T02:23:16.434Z,16.27
2023-02-21T02:24:11.504Z,16.30
2023-02-21T02:24:44.355Z,16.30
2023-02-21T02:25:16.488Z,16.28
2023-02-21T02:26:11.731Z,16.26
2023-02-21T02:27:18.832Z,16.27
2023-02-21T02:27:59.586Z,16.28
2023-02-21T02:28:43.217Z,16.28
2023-02-21T02:29:25.866Z,16.24
2023-02-21T02:30:18.308Z,16.27
2023-02-21T02:30:55.992Z,16.29
2023-02-21T02:31:41.594Z,16.24
2023-02-21T02:32:24.133Z,16.26
2023-02-21T02:33:22.973Z,16.28
2023-02-21T02:34:25.961Z,16.27
2023-02-21T02:34:54.071Z,16.28
2023-02-21T02:35:23.021Z,16.27
2023-02-21T02:35:49.420Z,16.24
2023-02-21T02:36:15.850Z,16.29
2023-02-21T02:36:42.239Z,16.29
2023-02-21T02:37:14.452Z,16.26
2023-02-21T02:37:43.544Z,16.28
2023-02-21T02:38:16.089Z,16.27
2023-02-21T02:38:46.610Z,16.29
2023-02-21T02:39:23.058Z,16.30
2023-02-21T02:39:51.889Z,16.24
2023-02-21T02:40:23.231Z,16.24
2023-02-21T02:40:59.605Z,16.29
2023-02-21T02:41:28.766Z,16.33
2023-02-21T02:42:02.907Z,16.34
2023-02-21T02:42:39.569Z,16.30
2023-02-21T02:43:10.583Z,16.28
2023-02-21T02:43:35.905Z,16.24
2023-02-21T02:44:06.159Z,16.22
2023-02-21T02:44:37.924Z,16.16
2023-02-21T02:45:03.580Z,16.22
2023-02-21T02:45:32.481Z,16.24
2023-02-21T02:46:01.051Z,16.22
2023-02-21T02:46:28.036Z,16.27
2023-02-21T02:46:50.769Z,16.26
2023-02-21T02:47:19.313Z,16.26
2023-02-21T02:47:44.814Z,16.27
2023-02-21T02:48:13.176Z,16.25
2023-02-21T02:48:38.254Z,16.28
2023-02-21T02:49:02.596Z,16.26
2023-02-21T02:49:29.481Z,16.23
2023-02-21T02:49:53.105Z,16.27
2023-02-21T02:50:17.376Z,16.28
2023-02-21T02:50:40.337Z,16.26
2023-02-21T02:51:07.483Z,16.26
2023-02-21T02:51:31.077Z,16.25
2023-02-21T02:51:55.180Z,16.27
2023-02-21T02:52:19.457Z,16.27
2023-02-21T02:52:52.001Z,16.18
2023-02-21T02:53:18.202Z,16.25
2023-02-21T02:53:41.040Z,16.24
2023-02-21T02:54:03.490Z,16.23
2023-02-21T02:54:25.180Z,16.24
2023-02-21T02:54:59.184Z,16.27
2023-02-21T02:55:30.328Z,16.27
2023-02-21T02:55:55.001Z,16.26
2023-02-21T02:56:17.652Z,16.28
2023-02-21T02:56:39.624Z,16.23
2023-02-21T02:57:10.616Z,16.28
2023-02-21T02:57:38.223Z,16.29
2023-02-21T02:58:01.868Z,16.27
2023-02-21T02:58:25.782Z,16.26
2023-02-21T02:58:52.682Z,16.24
2023-02-21T02:59:19.608Z,16.28
2023-02-21T02:59:46.335Z,16.28
2023-02-21T03:00:10.961Z,16.23
2023-02-21T03:00:38.008Z,16.24
2023-02-21T03:01:10.899Z,16.22
2023-02-21T03:01:59.759Z,16.29
2023-02-21T03:02:38.069Z,16.25
2023-02-21T03:03:16.358Z,16.29
2023-02-21T03:04:03.684Z,16.30
2023-02-21T03:04:54.541Z,16.29
2023-02-21T03:05:31.257Z,16.29
2023-02-21T03:06:07.214Z,16.24
2023-02-21T03:06:36.329Z,16.27
2023-02-21T03:07:06.556Z,16.25
2023-02-21T03:07:39.138Z,16.20
2023-02-21T03:08:08.900Z,16.18
2023-02-21T03:08:39.493Z,16.18
2023-02-21T03:09:07.499Z,16.18
2023-02-21T03:09:36.874Z,16.18
2023-02-21T03:10:09.935Z,16.18
2023-02-21T03:10:41.883Z,16.20
2023-02-21T03:11:10.859Z,16.16
2023-02-21T03:11:34.036Z,16.19
2023-02-21T03:12:02.887Z,16.20
2023-02-21T03:12:35.561Z,16.20
2023-02-21T03:13:06.396Z,16.22
2023-02-21T03:13:39.409Z,16.22
2023-02-21T03:14:07.991Z,16.14
2023-02-21T03:14:39.362Z,16.25
2023-02-21T03:15:05.113Z,16.24
2023-02-21T03:15:32.689Z,16.28
2023-02-21T03:16:00.405Z,16.27
2023-02-21T03:16:27.449Z,16.25
2023-02-21T03:16:54.377Z,16.26
2023-02-21T03:17:20.271Z,16.28
2023-02-21T03:17:46.469Z,16.26
2023-02-21T03:18:17.986Z,16.27
2023-02-21T03:18:43.450Z,16.27
2023-02-21T03:19:08.638Z,16.22
2023-02-21T03:19:35.065Z,16.19
2023-02-21T03:20:01.712Z,16.21
2023-02-21T03:20:26.337Z,16.20
2023-02-21T03:20:54.315Z,16.21
2023-02-21T03:21:21.593Z,16.14
2023-02-21T03:21:48.936Z,16.12
2023-02-21T03:22:14.297Z,16.14
2023-02-21T03:22:44.654Z,16.12
2023-02-21T03:23:09.065Z,16.17
2023-02-21T03:23:34.782Z,16.19
2023-02-21T03:24:03.129Z,16.19
2023-02-21T03:24:27.397Z,16.17
2023-02-21T03:24:50.308Z,16.16
2023-02-21T03:25:16.175Z,16.14
2023-02-21T03:25:46.529Z,16.15
2023-02-21T03:26:10.921Z,16.13
2023-02-21T03:26:40.028Z,16.17
2023-02-21T03:27:22.627Z,16.11
2023-02-21T03:27:55.952Z,16.18
2023-02-21T03:28:21.256Z,16.15
2023-02-21T03:28:44.869Z,16.14
2023-02-21T03:29:08.619Z,16.15
2023-02-21T03:29:31.845Z,16.15
2023-02-21T03:29:55.950Z,16.14
2023-02-21T03:30:19.348Z,16.19
2023-02-21T03:30:47.786Z,16.18
2023-02-21T03:31:13.263Z,16.13
2023-02-21T03:31:41.622Z,16.15
2023-02-21T03:32:11.804Z,16.20
2023-02-21T03:32:38.677Z,16.20
2023-02-21T03:33:00.793Z,16.21
2023-02-21T03:33:23.869Z,16.20
2023-02-21T03:33:46.630Z,16.19
2023-02-21T03:34:08.312Z,16.19
2023-02-21T03:34:29.996Z,16.16
2023-02-21T03:34:51.844Z,16.18
2023-02-21T03:35:17.748Z,16.13
2023-02-21T03:35:39.437Z,16.14
2023-02-21T03:36:04.708Z,16.11
2023-02-21T03:36:27.948Z,16.10
2023-02-21T03:36:50.291Z,16.12
2023-02-21T03:37:23.134Z,16.16
2023-02-21T03:37:46.920Z,16.20
2023-02-21T03:38:10.300Z,16.19
2023-02-21T03:38:32.904Z,16.19
2023-02-21T03:38:56.213Z,16.17
2023-02-21T03:39:18.597Z,16.22
2023-02-21T03:39:41.239Z,16.21
2023-02-21T03:40:05.289Z,16.21
2023-02-21T03:40:31.889Z,16.19
2023-02-21T03:40:54.868Z,16.17
2023-02-21T03:41:17.628Z,16.13
2023-02-21T03:41:39.335Z,16.13
2023-02-21T03:42:02.272Z,16.13
2023-02-21T03:42:24.320Z,16.16
2023-02-21T03:42:46.617Z,16.10
2023-02-21T03:43:11.712Z,16.12
2023-02-21T03:43:43.485Z,15.97
2023-02-21T03:44:05.945Z,16.02
2023-02-21T03:44:27.927Z,16.03
2023-02-21T03:44:49.618Z,16.03
2023-02-21T03:45:12.728Z,16.06
2023-02-21T03:45:36.930Z,16.08
2023-02-21T03:46:05.336Z,16.11
2023-02-21T03:46:27.685Z,16.15
2023-02-21T03:46:50.425Z,16.12
2023-02-21T03:47:12.209Z,16.09
2023-02-21T03:47:33.966Z,16.10
2023-02-21T03:47:56.040Z,16.09
2023-02-21T03:48:31.014Z,16.09
2023-02-21T03:48:55.707Z,16.10
2023-02-21T03:49:23.712Z,16.02
2023-02-21T03:49:46.301Z,15.84
2023-02-21T03:50:08.421Z,16.00
2023-02-21T03:50:34.257Z,15.95
2023-02-21T03:50:56.093Z,15.97
2023-02-21T03:51:23.951Z,15.93
2023-02-21T03:51:45.554Z,15.91
2023-02-21T03:52:07.821Z,15.92
2023-02-21T03:52:29.429Z,15.91
2023-02-21T03:52:52.441Z,15.92
2023-02-21T03:53:14.466Z,15.97
2023-02-21T03:53:38.534Z,15.96
2023-02-21T03:54:03.288Z,16.01
2023-02-21T03:54:34.747Z,16.01
2023-02-21T03:54:56.846Z,15.95
2023-02-21T03:55:20.360Z,16.02
2023-02-21T03:55:50.850Z,16.03
2023-02-21T03:56:19.328Z,16.05
2023-02-21T03:57:13.300Z,16.07
2023-02-21T03:57:37.546Z,16.08
2023-02-21T03:58:00.391Z,15.94
2023-02-21T03:58:23.578Z,15.94
2023-02-21T03:58:45.264Z,15.95
2023-02-21T03:59:07.378Z,15.88
2023-02-21T03:59:30.331Z,15.83
2023-02-21T03:59:52.587Z,15.77
2023-02-21T04:00:14.798Z,15.55
2023-02-21T04:00:44.898Z,15.69
2023-02-21T04:01:07.731Z,15.67
2023-02-21T04:01:29.521Z,15.60
2023-02-21T04:01:51.216Z,15.67
2023-02-21T04:02:13.945Z,15.74
2023-02-21T04:02:36.614Z,15.77
2023-02-21T04:02:58.232Z,15.79
2023-02-21T04:03:27.350Z,15.80
2023-02-21T04:03:54.424Z,15.84
2023-02-21T04:04:16.893Z,15.82
2023-02-21T04:04:39.942Z,15.84
2023-02-21T04:05:11.019Z,15.82
2023-02-21T04:05:35.017Z,15.78
2023-02-21T04:05:56.775Z,15.84
2023-02-21T04:06:18.768Z,15.87
2023-02-21T04:06:41.329Z,15.89
2023-02-21T04:07:04.320Z,15.89
2023-02-21T04:07:26.205Z,15.85
2023-02-21T04:07:48.066Z,15.80
2023-02-21T04:08:11.648Z,15.79
2023-02-21T04:08:33.487Z,15.81
2023-02-21T04:08:55.136Z,15.78
2023-02-21T04:09:18.353Z,15.80
2023-02-21T04:09:40.180Z,15.82
2023-02-21T04:10:04.362Z,15.86
2023-02-21T04:10:50.477Z,15.88
2023-02-21T04:11:19.127Z,15.93
2023-02-21T04:11:43.316Z,15.93
2023-02-21T04:12:05.857Z,15.94
2023-02-21T04:12:29.048Z,15.99
2023-02-21T04:12:51.710Z,16.01
2023-02-21T04:13:13.819Z,15.99
2023-02-21T04:13:39.609Z,16.02
2023-02-21T04:14:01.351Z,16.02
2023-02-21T04:14:24.061Z,16.06
2023-02-21T04:14:45.758Z,16.07
2023-02-21T04:15:10.339Z,16.02
2023-02-21T04:15:33.517Z,15.98
2023-02-21T04:15:56.462Z,15.96
2023-02-21T04:16:18.890Z,15.96
2023-02-21T04:16:42.206Z,15.98
2023-02-21T04:17:04.336Z,15.96
2023-02-21T04:17:26.882Z,16.02
2023-02-21T04:17:50.548Z,16.01
2023-02-21T04:18:12.794Z,16.06
2023-02-21T04:18:37.701Z,16.04
2023-02-21T04:19:00.479Z,16.05
2023-02-21T04:19:22.261Z,16.06
2023-02-21T04:19:45.286Z,16.10
2023-02-21T04:20:09.197Z,16.08
2023-02-21T04:20:37.240Z,16.04
2023-02-21T04:21:00.780Z,15.99
2023-02-21T04:21:23.447Z,16.01
2023-02-21T04:21:48.066Z,16.03
2023-02-21T04:22:10.088Z,16.02
2023-02-21T04:22:32.874Z,16.03
2023-02-21T04:23:03.132Z,16.04
2023-02-21T04:23:25.086Z,16.03
2023-02-21T04:23:49.616Z,16.03
2023-02-21T04:24:11.501Z,16.01
2023-02-21T04:24:33.147Z,16.02
2023-02-21T04:24:56.506Z,16.04
2023-02-21T04:25:20.886Z,16.05
2023-02-21T04:25:48.920Z,15.92
2023-02-21T04:26:17.172Z,16.11
2023-02-21T04:26:44.760Z,16.09
2023-02-21T04:27:07.572Z,16.10
2023-02-21T04:27:32.140Z,16.14
2023-02-21T04:27:54.814Z,16.08
2023-02-21T04:28:17.874Z,16.11
2023-02-21T04:28:39.520Z,16.09
2023-02-21T04:29:01.421Z,16.12
2023-02-21T04:29:23.575Z,16.10
2023-02-21T04:29:45.944Z,16.08
2023-02-21T04:30:10.199Z,16.07
2023-02-21T04:30:32.218Z,16.05
2023-02-21T04:30:54.714Z,16.02
2023-02-21T04:31:19.750Z,16.01
2023-02-21T04:31:42.888Z,16.09
2023-02-21T04:32:10.427Z,16.09
2023-02-21T04:32:32.228Z,16.04
2023-02-21T04:32:57.998Z,16.13
2023-02-21T04:33:20.146Z,16.16
2023-02-21T04:33:41.837Z,16.14
2023-02-21T04:34:11.636Z,16.15
2023-02-21T04:34:35.738Z,16.15
2023-02-21T04:34:57.388Z,16.04
2023-02-21T04:35:19.350Z,16.06
2023-02-21T04:35:45.092Z,16.08
2023-02-21T04:36:17.581Z,16.06
2023-02-21T04:36:40.070Z,16.07
2023-02-21T04:37:01.929Z,16.07
2023-02-21T04:37:23.937Z,16.03
2023-02-21T04:37:46.956Z,16.04
2023-02-21T04:38:09.168Z,16.03
2023-02-21T04:38:30.785Z,16.04
2023-02-21T04:38:52.444Z,16.07
2023-02-21T04:39:15.197Z,16.00
2023-02-21T04:39:36.844Z,16.04
2023-02-21T04:39:59.052Z,15.98
2023-02-21T04:40:20.768Z,16.02
2023-02-21T04:40:42.373Z,16.04
2023-02-21T04:41:05.692Z,15.99
2023-02-21T04:41:29.833Z,15.99
2023-02-21T04:41:51.483Z,15.96
2023-02-21T04:42:13.100Z,15.96
2023-02-21T04:42:36.438Z,15.95
2023-02-21T04:42:58.052Z,15.95
2023-02-21T04:43:21.682Z,15.94
2023-02-21T04:43:43.615Z,15.92
2023-02-21T04:44:06.153Z,15.93
2023-02-21T04:44:29.503Z,15.90
2023-02-21T04:44:59.702Z,15.93
2023-02-21T04:45:23.069Z,15.90
2023-02-21T04:45:44.900Z,15.95
2023-02-21T04:46:07.554Z,15.95
2023-02-21T04:46:29.210Z,15.93
2023-02-21T04:46:53.679Z,15.96
2023-02-21T04:47:15.424Z,16.00
2023-02-21T04:47:38.221Z,16.02
2023-02-21T04:47:59.805Z,16.03
2023-02-21T04:48:21.517Z,15.99
2023-02-21T04:48:43.279Z,16.00
2023-02-21T04:49:04.908Z,15.97
2023-02-21T04:49:27.630Z,15.88
2023-02-21T04:49:51.656Z,15.93
2023-02-21T04:50:15.253Z,15.87
2023-02-21T04:50:36.810Z,15.93
2023-02-21T04:51:16.152Z,15.91
2023-02-21T04:51:37.949Z,15.95
2023-02-21T04:51:59.617Z,15.97
2023-02-21T04:52:21.257Z,15.99
2023-02-21T04:52:44.433Z,15.99
2023-02-21T04:53:06.046Z,16.00
2023-02-21T04:53:27.665Z,16.02
2023-02-21T04:53:50.119Z,16.01
2023-02-21T04:54:14.104Z,16.04
2023-02-21T04:54:35.818Z,16.06
2023-02-21T04:54:57.522Z,16.04
2023-02-21T04:55:19.236Z,16.01
2023-02-21T04:55:43.024Z,16.01
2023-02-21T04:56:07.464Z,15.98
2023-02-21T04:56:29.485Z,15.94
2023-02-21T04:56:51.276Z,15.92
2023-02-21T04:57:14.033Z,15.88
2023-02-21T04:57:35.701Z,15.88
2023-02-21T04:57:57.368Z,15.86
2023-02-21T04:58:18.991Z,15.87
2023-02-21T04:58:46.134Z,15.88
2023-02-21T04:59:09.535Z,15.91
2023-02-21T04:59:31.194Z,15.94
2023-02-21T04:59:57.246Z,15.93
2023-02-21T05:00:20.996Z,15.94
2023-02-21T05:00:43.609Z,15.92
2023-02-21T05:01:05.568Z,15.94
2023-02-21T05:01:28.061Z,15.87
2023-02-21T05:01:49.982Z,15.92
2023-02-21T05:02:12.023Z,15.92
2023-02-21T05:02:35.468Z,15.87
2023-02-21T05:02:57.099Z,15.89
2023-02-21T05:03:18.766Z,15.87
2023-02-21T05:03:40.641Z,15.87
2023-02-21T05:04:03.566Z,15.86
2023-02-21T05:04:25.206Z,15.82
2023-02-21T05:04:46.786Z,15.87
2023-02-21T05:05:08.938Z,15.91
2023-02-21T05:05:31.499Z,15.90
2023-02-21T05:05:53.099Z,15.90
2023-02-21T05:06:18.957Z,15.97
2023-02-21T05:06:41.463Z,15.96
2023-02-21T05:07:03.601Z,15.96
2023-02-21T05:07:25.346Z,16.01
2023-02-21T05:07:47.103Z,16.01
2023-02-21T05:08:09.760Z,15.95
2023-02-21T05:08:32.342Z,16.01
2023-02-21T05:08:53.943Z,16.02
2023-02-21T05:09:15.556Z,16.02
2023-02-21T05:09:38.284Z,15.99
2023-02-21T05:10:00.173Z,15.98
2023-02-21T05:10:22.198Z,16.01
2023-02-21T05:10:45.850Z,16.02
2023-02-21T05:11:08.746Z,16.01
2023-02-21T05:11:34.507Z,16.03
2023-02-21T05:11:56.450Z,16.04
2023-02-21T05:12:20.353Z,15.99
2023-02-21T05:12:42.466Z,15.97
2023-02-21T05:13:05.403Z,15.96
2023-02-21T05:13:27.147Z,15.96
2023-02-21T05:13:51.604Z,15.96
2023-02-21T05:14:13.219Z,15.93
2023-02-21T05:14:34.867Z,15.87
2023-02-21T05:14:56.632Z,15.85
2023-02-21T05:15:18.485Z,15.75
2023-02-21T05:15:41.297Z,15.84
2023-02-21T05:16:02.946Z,15.80
2023-02-21T05:16:24.627Z,15.82
2023-02-21T05:16:47.543Z,15.83
2023-02-21T05:17:09.187Z,15.82
2023-02-21T05:17:30.812Z,15.88
2023-02-21T05:17:52.495Z,15.88
2023-02-21T05:18:14.127Z,15.90
2023-02-21T05:18:38.155Z,15.93
2023-02-21T05:18:59.782Z,15.96
2023-02-21T05:19:27.093Z,15.99
2023-02-21T05:19:49.008Z,15.99
2023-02-21T05:20:12.822Z,15.99
2023-02-21T05:20:34.501Z,15.95
2023-02-21T05:20:56.139Z,15.96
2023-02-21T05:21:19.752Z,15.97
2023-02-21T05:21:41.310Z,15.98
2023-02-21T05:22:06.581Z,15.97
2023-02-21T05:22:28.215Z,15.95
2023-02-21T05:22:49.931Z,15.95
2023-02-21T05:23:13.753Z,15.94
2023-02-21T05:23:36.092Z,15.97
2023-02-21T05:23:58.673Z,15.97
2023-02-21T05:24:20.266Z,15.93
2023-02-21T05:24:42.759Z,15.90
2023-02-21T05:25:04.769Z,15.87
2023-02-21T05:25:27.458Z,15.90
2023-02-21T05:25:49.113Z,15.81
2023-02-21T05:26:12.343Z,15.91
2023-02-21T05:26:38.296Z,15.92
2023-02-21T05:27:01.008Z,15.84
2023-02-21T05:27:22.778Z,15.93
2023-02-21T05:27:45.486Z,15.93
2023-02-21T05:28:07.108Z,15.98
2023-02-21T05:28:29.738Z,16.00
2023-02-21T05:28:52.454Z,16.04
2023-02-21T05:29:15.268Z,16.03
2023-02-21T05:29:38.065Z,16.02
2023-02-21T05:30:01.021Z,16.03
2023-02-21T05:30:23.909Z,16.06
2023-02-21T05:30:45.763Z,16.08
2023-02-21T05:31:09.645Z,16.09
2023-02-21T05:31:31.416Z,16.11
2023-02-21T05:31:53.033Z,16.07
2023-02-21T05:32:14.802Z,16.08
2023-02-21T05:32:37.397Z,16.10
2023-02-21T05:32:59.609Z,16.12
2023-02-21T05:33:21.360Z,16.06
2023-02-21T05:33:42.985Z,16.07
2023-02-21T05:34:05.586Z,16.02
2023-02-21T05:34:27.416Z,16.04
2023-02-21T05:34:50.272Z,16.06
2023-02-21T05:35:14.110Z,16.05
2023-02-21T05:35:35.683Z,16.02
2023-02-21T05:35:58.453Z,16.09
2023-02-21T05:36:24.368Z,16.08
2023-02-21T05:36:48.196Z,16.03
2023-02-21T05:37:10.923Z,15.99
2023-02-21T05:37:32.604Z,16.09
2023-02-21T05:37:54.191Z,16.11
2023-02-21T05:38:16.251Z,16.12
2023-02-21T05:38:45.824Z,16.12
2023-02-21T05:39:08.973Z,16.08
2023-02-21T05:39:30.747Z,16.05
2023-02-21T05:39:53.397Z,16.06
2023-02-21T05:40:16.308Z,16.04
2023-02-21T05:40:37.933Z,16.07
2023-02-21T05:40:59.861Z,16.03
2023-02-21T05:41:22.890Z,16.04
2023-02-21T05:41:48.579Z,16.01
2023-02-21T05:42:10.229Z,16.07
2023-02-21T05:42:32.404Z,16.06
2023-02-21T05:42:54.989Z,16.03
2023-02-21T05:43:16.668Z,16.08
2023-02-21T05:43:38.286Z,16.01
2023-02-21T05:44:00.110Z,16.05
2023-02-21T05:44:25.368Z,15.99
2023-02-21T05:44:47.977Z,15.97
2023-02-21T05:45:10.679Z,15.98
2023-02-21T05:45:32.341Z,15.99
2023-02-21T05:45:55.002Z,15.99
2023-02-21T05:46:22.605Z,15.99
2023-02-21T05:46:45.926Z,16.01
2023-02-21T05:47:07.698Z,15.99
2023-02-21T05:47:30.488Z,15.97
2023-02-21T05:47:52.107Z,15.82
2023-02-21T05:48:15.044Z,15.85
2023-02-21T05:48:36.635Z,15.84
2023-02-21T05:49:01.647Z,15.84
2023-02-21T05:49:23.240Z,15.87
2023-02-21T05:49:45.308Z,15.86
2023-02-21T05:50:07.305Z,15.89
2023-02-21T05:50:30.808Z,15.81
2023-02-21T05:50:52.424Z,15.83
2023-02-21T05:51:15.092Z,15.76
2023-02-21T05:51:41.068Z,15.82
2023-02-21T05:52:02.849Z,15.82
2023-02-21T05:52:24.500Z,15.83
2023-02-21T05:52:46.175Z,15.84
2023-02-21T05:53:10.122Z,15.82
2023-02-21T05:53:35.293Z,15.87
2023-02-21T05:53:56.896Z,15.91
2023-02-21T05:54:21.579Z,15.92
2023-02-21T05:54:44.218Z,15.83
2023-02-21T05:55:06.336Z,15.90
2023-02-21T05:55:28.395Z,15.89
2023-02-21T05:55:50.014Z,15.87
2023-02-21T05:56:13.430Z,15.91
2023-02-21T05:56:41.227Z,15.96
2023-02-21T05:57:03.373Z,15.98
2023-02-21T05:57:26.442Z,15.98
2023-02-21T05:57:48.182Z,15.98
2023-02-21T05:58:09.818Z,15.98
2023-02-21T05:58:35.246Z,16.03
2023-02-21T05:58:56.832Z,16.01
2023-02-21T05:59:20.339Z,16.00
2023-02-21T05:59:43.555Z,16.03
2023-02-21T06:00:06.923Z,16.00
2023-02-21T06:00:33.970Z,16.05
2023-02-21T06:00:56.893Z,16.06
2023-02-21T06:01:23.457Z,16.04
2023-02-21T06:01:47.065Z,16.07
2023-02-21T06:02:11.181Z,16.09
2023-02-21T06:02:35.383Z,16.08
2023-02-21T06:02:58.576Z,16.09
2023-02-21T06:03:20.195Z,16.08
2023-02-21T06:03:41.924Z,16.11
2023-02-21T06:04:04.916Z,16.12
2023-02-21T06:04:26.614Z,16.11
2023-02-21T06:04:49.027Z,16.11
2023-02-21T06:05:10.740Z,16.13
2023-02-21T06:05:33.330Z,16.14
2023-02-21T06:05:54.987Z,16.18
2023-02-21T06:06:16.837Z,16.17
2023-02-21T06:06:39.856Z,16.16
2023-02-21T06:07:02.406Z,16.18
2023-02-21T06:07:23.982Z,16.16
2023-02-21T06:07:46.531Z,16.06
2023-02-21T06:08:10.736Z,16.15
2023-02-21T06:08:34.174Z,16.14
2023-02-21T06:08:56.019Z,16.18
2023-02-21T06:09:18.862Z,16.14
2023-02-21T06:09:40.462Z,16.13
2023-02-21T06:10:03.061Z,16.11
2023-02-21T06:10:24.615Z,16.11
2023-02-21T06:10:47.720Z,16.11
2023-02-21T06:11:11.308Z,16.09
2023-02-21T06:11:35.344Z,16.08
2023-02-21T06:11:57.453Z,16.08
2023-02-21T06:12:19.034Z,16.08
2023-02-21T06:12:40.777Z,15.94
2023-02-21T06:13:03.419Z,16.09
2023-02-21T06:13:25.003Z,16.09
2023-02-21T06:13:46.660Z,16.10
2023-02-21T06:14:13.705Z,16.11
2023-02-21T06:14:36.273Z,16.13
2023-02-21T06:14:57.873Z,16.12
2023-02-21T06:15:19.670Z,16.16
2023-02-21T06:15:41.274Z,16.14
2023-02-21T06:16:03.914Z,16.11
2023-02-21T06:16:26.213Z,16.14
2023-02-21T06:16:48.178Z,16.09
2023-02-21T06:17:09.718Z,16.12
2023-02-21T06:17:32.253Z,16.14
2023-02-21T06:17:53.852Z,16.15
2023-02-21T06:18:16.650Z,16.13
2023-02-21T06:18:39.497Z,16.00
2023-02-21T06:19:01.788Z,16.12
2023-02-21T06:19:23.388Z,16.13
2023-02-21T06:19:45.072Z,16.10
2023-02-21T06:20:08.746Z,16.13